Carbonear, Canada
Current Conditions -  °F | °C
As of 9:00 PM on Wednesday 22 Oct 2014 (Local Time) from CYYT Reporting Station
Broken Clouds Broken Clouds  
Wind Chill: 36°   Ceiling: 23000
Heat Index: 39°   Visibility: 15mi
Dew Point: 37°   Wind: 5mph
Humidity: 93%   Direction: 90°E
Pressure: 30.46"   Gusts: NA
Location:  47.73°N, 53.25°W
Report Text: CYYT 222300Z 09004KT 15SM FEW017 BKN230 04/03 A3046 RMK SC2CI3 SLP321
Loading
Personal Weather Stations






























Interactive Weather Map New forecast layout! Learn more

10-Day Weather Forecast

Advertisements
Track Severe Weather on mobile